Time;durP1;ratioP1;P1;durP2;ratioP2;P2;SDS_P1;SDS_P2;PMS_P1;PMS_P2;Temp;Humidity;BMP_temperature;BMP_pressure;BME280_temperature;BME280_humidity;BME280_pressure;Samples;Min_cycle;Max_cycle;Signal;HPM_P1;HPM_P2
2023/07/13 00:01:52;;;;;;;1.42;1.33;;;21.20;99.90;;;;;;5019086;28;20190;-68
2023/07/13 00:04:21;;;;;;;1.60;1.50;;;21.20;99.90;;;;;;5027150;28;20201;-68
2023/07/13 00:06:48;;;;;;;1.42;1.35;;;21.20;99.90;;;;;;5028500;28;20221;-68
2023/07/13 00:09:16;;;;;;;2.35;1.55;;;21.20;99.90;;;;;;5017837;28;20229;-68
2023/07/13 00:11:44;;;;;;;1.60;1.50;;;21.30;99.90;;;;;;5012271;28;20879;-68
2023/07/13 00:14:12;;;;;;;1.38;1.27;;;21.20;99.90;;;;;;5026995;28;20369;-68
2023/07/13 00:16:43;;;;;;;1.75;1.65;;;21.20;99.90;;;;;;5012724;28;20209;-68
2023/07/13 00:19:11;;;;;;;1.70;1.50;;;21.10;99.90;;;;;;5019795;28;20735;-68
2023/07/13 00:21:38;;;;;;;1.60;1.50;;;21.10;99.90;;;;;;5018031;28;20306;-68
2023/07/13 00:24:06;;;;;;;4.47;1.88;;;21.10;99.90;;;;;;5024820;28;20313;-68
2023/07/13 00:26:33;;;;;;;1.67;1.58;;;21.10;99.90;;;;;;5024236;28;20217;-68
2023/07/13 00:29:01;;;;;;;1.55;1.45;;;21.10;99.90;;;;;;5019020;28;20222;-69
2023/07/13 00:31:30;;;;;;;1.67;1.58;;;21.10;99.90;;;;;;5029769;28;20220;-69
2023/07/13 00:33:59;;;;;;;2.80;1.40;;;21.10;99.90;;;;;;5027205;28;20202;-66
2023/07/13 00:36:27;;;;;;;1.40;1.30;;;21.10;99.90;;;;;;5018957;28;20237;-67
2023/07/13 00:38:54;;;;;;;1.60;1.45;;;21.10;99.90;;;;;;5025691;28;20198;-67
2023/07/13 00:41:21;;;;;;;1.60;1.50;;;21.00;99.90;;;;;;5029047;28;20199;-67
2023/07/13 00:43:48;;;;;;;1.50;1.40;;;21.00;99.90;;;;;;5009675;28;20285;-67
2023/07/13 00:46:19;;;;;;;1.20;1.20;;;21.00;99.90;;;;;;5009697;28;20246;-68
2023/07/13 00:48:48;;;;;;;2.08;1.60;;;21.00;99.90;;;;;;5017503;28;20270;-68
2023/07/13 00:51:21;;;;;;;1.70;1.60;;;20.90;99.90;;;;;;5006626;28;20705;-67
2023/07/13 00:53:48;;;;;;;1.70;1.60;;;20.90;99.90;;;;;;5016727;28;20205;-68
2023/07/13 00:56:16;;;;;;;3.47;2.30;;;20.90;99.90;;;;;;5035123;28;20203;-68
2023/07/13 00:58:47;;;;;;;1.73;1.63;;;20.90;99.90;;;;;;5031562;28;20195;-67
2023/07/13 01:01:14;;;;;;;3.33;2.47;;;20.90;99.90;;;;;;5016841;28;20215;-67
2023/07/13 01:03:41;;;;;;;2.30;2.10;;;20.80;99.90;;;;;;4999065;28;20300;-67
2023/07/13 01:06:09;;;;;;;3.20;2.67;;;20.80;99.90;;;;;;5034696;28;20214;-67
2023/07/13 01:08:39;;;;;;;2.78;2.53;;;20.80;99.90;;;;;;5031661;28;20199;-67
2023/07/13 01:11:07;;;;;;;4.03;2.75;;;20.80;99.90;;;;;;5022167;28;20194;-67
2023/07/13 01:13:35;;;;;;;5.55;2.50;;;20.80;99.90;;;;;;5016639;28;20198;-67
2023/07/13 01:16:07;;;;;;;2.50;2.15;;;20.80;99.90;;;;;;5032041;28;20198;-67
2023/07/13 01:18:35;;;;;;;2.25;2.05;;;20.70;99.90;;;;;;5028643;28;20260;-67
2023/07/13 01:21:05;;;;;;;2.10;2.00;;;20.70;99.90;;;;;;5006727;28;20211;-68
2023/07/13 01:23:33;;;;;;;2.63;1.95;;;20.70;99.90;;;;;;5023701;28;20305;-68
2023/07/13 01:26:01;;;;;;;1.77;1.67;;;20.70;99.90;;;;;;5023802;28;20215;-68
2023/07/13 01:28:29;;;;;;;1.67;1.58;;;20.70;99.90;;;;;;5017515;28;20213;-68
2023/07/13 01:30:59;;;;;;;1.70;1.60;;;20.60;99.90;;;;;;5016218;28;21239;-68
2023/07/13 01:33:27;;;;;;;2.75;1.90;;;20.60;99.90;;;;;;5021360;28;20252;-67
2023/07/13 01:35:57;;;;;;;1.70;1.60;;;20.60;99.90;;;;;;5013215;28;20547;-68
2023/07/13 01:38:27;;;;;;;2.10;2.00;;;20.60;99.90;;;;;;5018099;28;21613;-68
2023/07/13 01:40:54;;;;;;;2.00;1.90;;;20.60;99.90;;;;;;5000131;28;20211;-68
2023/07/13 01:43:23;;;;;;;2.25;2.00;;;20.60;99.90;;;;;;5015571;28;20212;-67
2023/07/13 01:45:50;;;;;;;1.65;1.55;;;20.50;99.90;;;;;;5013685;28;20555;-68
2023/07/13 01:48:18;;;;;;;1.98;1.88;;;20.50;99.90;;;;;;5027037;28;20272;-68
2023/07/13 01:50:46;;;;;;;1.98;1.77;;;20.50;99.90;;;;;;5014060;28;20275;-68
2023/07/13 01:53:13;;;;;;;2.00;1.90;;;20.50;99.90;;;;;;5022460;28;20221;-68
2023/07/13 01:55:43;;;;;;;3.15;2.47;;;20.50;99.90;;;;;;5031360;28;20245;-68
2023/07/13 01:58:10;;;;;;;2.20;2.10;;;20.50;99.90;;;;;;5029820;28;20570;-67
2023/07/13 02:00:37;;;;;;;1.92;1.58;;;20.50;99.90;;;;;;5000518;28;20194;-67
2023/07/13 02:03:04;;;;;;;1.80;1.70;;;20.50;99.90;;;;;;5023123;28;20269;-67
2023/07/13 02:05:33;;;;;;;2.28;1.80;;;20.50;99.90;;;;;;5011840;28;20225;-68
2023/07/13 02:08:00;;;;;;;2.00;1.55;;;20.50;99.90;;;;;;5031164;28;20258;-68
2023/07/13 02:10:28;;;;;;;1.60;1.50;;;20.50;99.90;;;;;;5000236;28;20217;-68
2023/07/13 02:12:57;;;;;;;1.50;1.40;;;20.50;99.90;;;;;;4997584;28;20207;-68
2023/07/13 02:15:24;;;;;;;1.30;1.30;;;20.50;99.90;;;;;;5016103;28;20218;-67
2023/07/13 02:17:51;;;;;;;2.13;1.65;;;20.40;99.90;;;;;;5012289;28;20209;-68
2023/07/13 02:20:18;;;;;;;2.08;1.30;;;20.50;99.90;;;;;;5031110;28;20233;-68
2023/07/13 02:22:45;;;;;;;1.65;1.55;;;20.50;99.90;;;;;;5002452;28;20199;-68
2023/07/13 02:25:12;;;;;;;2.20;1.50;;;20.50;99.90;;;;;;5031213;28;20518;-68
2023/07/13 02:27:39;;;;;;;1.60;1.50;;;20.50;99.90;;;;;;5014365;28;20265;-68
2023/07/13 02:30:09;;;;;;;1.25;1.23;;;20.60;99.90;;;;;;5020043;28;20213;-68
2023/07/13 02:32:36;;;;;;;1.77;1.42;;;20.60;99.90;;;;;;5010695;28;20198;-68
2023/07/13 02:35:04;;;;;;;1.40;1.27;;;20.60;99.90;;;;;;5015434;28;20199;-67
2023/07/13 02:37:31;;;;;;;1.25;1.20;;;20.70;99.90;;;;;;5023778;28;20191;-67
2023/07/13 02:39:58;;;;;;;1.48;1.27;;;20.70;99.90;;;;;;5017713;28;20194;-67
2023/07/13 02:42:26;;;;;;;1.10;1.10;;;20.70;99.90;;;;;;5011154;28;20511;-67
2023/07/13 02:44:53;;;;;;;1.25;1.10;;;20.70;99.90;;;;;;5015340;28;22460;-67
2023/07/13 02:47:21;;;;;;;1.20;1.20;;;20.70;99.90;;;;;;5025504;28;20214;-67
2023/07/13 02:49:48;;;;;;;1.15;1.15;;;20.60;99.90;;;;;;5030266;28;20542;-67
2023/07/13 02:52:15;;;;;;;1.02;1.02;;;20.70;99.90;;;;;;5008340;28;20249;-67
2023/07/13 02:54:43;;;;;;;3.08;1.55;;;20.70;99.90;;;;;;5014232;28;20334;-67
2023/07/13 02:57:11;;;;;;;2.10;1.30;;;20.70;99.90;;;;;;5018884;28;20665;-67
2023/07/13 02:59:38;;;;;;;1.23;1.20;;;20.70;99.90;;;;;;5033660;28;20289;-67
2023/07/13 03:02:05;;;;;;;1.10;1.00;;;20.70;99.90;;;;;;5011188;28;20206;-66
2023/07/13 03:04:35;;;;;;;1.20;1.20;;;20.70;99.90;;;;;;5017551;28;20301;-67
2023/07/13 03:07:03;;;;;;;1.13;1.13;;;20.70;99.90;;;;;;5018788;28;20246;-68
2023/07/13 03:09:36;;;;;;;1.00;1.00;;;20.70;99.90;;;;;;5013650;28;20643;-68
2023/07/13 03:12:06;;;;;;;4.18;1.40;;;20.60;99.90;;;;;;5003702;28;20289;-67
2023/07/13 03:14:33;;;;;;;1.65;1.45;;;20.60;99.90;;;;;;5011028;28;20214;-68
2023/07/13 03:17:02;;;;;;;1.60;1.50;;;20.60;99.90;;;;;;5023689;28;20221;-67
2023/07/13 03:19:33;;;;;;;3.05;1.35;;;20.70;99.90;;;;;;5012998;28;20307;-67
2023/07/13 03:22:02;;;;;;;1.15;1.15;;;20.70;99.90;;;;;;4998890;28;20288;-67
2023/07/13 03:24:30;;;;;;;1.10;1.10;;;20.70;99.90;;;;;;5015852;28;20621;-67
2023/07/13 03:26:58;;;;;;;1.02;1.02;;;20.80;99.90;;;;;;5017342;28;20636;-67
2023/07/13 03:29:25;;;;;;;0.90;0.90;;;20.70;99.90;;;;;;5001763;28;20708;-67
2023/07/13 03:31:53;;;;;;;1.48;1.08;;;20.70;99.90;;;;;;5010934;28;20582;-67
2023/07/13 03:34:21;;;;;;;1.17;1.08;;;20.70;99.90;;;;;;5027641;28;20220;-67
2023/07/13 03:36:49;;;;;;;0.90;0.90;;;20.70;99.90;;;;;;5016007;28;20206;-67
2023/07/13 03:39:16;;;;;;;1.20;1.10;;;20.70;99.90;;;;;;5018099;28;20198;-67
2023/07/13 03:41:48;;;;;;;1.42;0.93;;;20.70;99.90;;;;;;5011195;28;20623;-67
2023/07/13 03:44:17;;;;;;;1.20;1.10;;;20.70;99.90;;;;;;5029051;28;20202;-68
2023/07/13 03:46:45;;;;;;;1.45;1.35;;;20.70;99.90;;;;;;4998399;28;20215;-67
2023/07/13 03:49:14;;;;;;;1.00;1.00;;;20.80;99.90;;;;;;5001860;28;20199;-67
2023/07/13 03:51:41;;;;;;;1.13;1.02;;;20.80;99.90;;;;;;5014066;28;20256;-67
2023/07/13 03:54:10;;;;;;;0.90;0.90;;;20.80;99.90;;;;;;5029968;28;20282;-67
2023/07/13 03:56:38;;;;;;;1.10;1.00;;;20.90;99.90;;;;;;5004213;28;20193;-68
2023/07/13 03:59:07;;;;;;;1.20;1.10;;;20.90;99.90;;;;;;4998527;28;20206;-67
2023/07/13 04:01:34;;;;;;;1.35;0.88;;;20.90;99.90;;;;;;5012546;28;20545;-67
2023/07/13 04:04:01;;;;;;;1.00;0.88;;;20.90;99.90;;;;;;5010396;28;20285;-67
2023/07/13 04:06:30;;;;;;;0.90;0.90;;;20.90;99.90;;;;;;5003800;28;20857;-68
2023/07/13 04:09:00;;;;;;;0.95;0.95;;;20.80;99.90;;;;;;5027782;28;20687;-67
2023/07/13 04:11:31;;;;;;;0.90;0.90;;;20.80;99.90;;;;;;5025822;28;20274;-67
2023/07/13 04:13:59;;;;;;;0.90;0.90;;;20.90;99.90;;;;;;5003439;28;20264;-67
2023/07/13 04:16:26;;;;;;;1.40;1.30;;;20.90;99.90;;;;;;5021666;28;20210;-67
2023/07/13 04:18:59;;;;;;;0.98;0.93;;;20.90;99.90;;;;;;5027772;28;20207;-68
2023/07/13 04:21:27;;;;;;;1.25;1.00;;;20.80;99.90;;;;;;5028994;28;20222;-68
2023/07/13 04:23:55;;;;;;;0.90;0.90;;;20.90;99.90;;;;;;5018755;28;20198;-67
2023/07/13 04:26:22;;;;;;;1.00;0.95;;;20.90;99.90;;;;;;5029740;28;20218;-68
2023/07/13 04:28:51;;;;;;;0.90;0.90;;;20.90;99.90;;;;;;5014462;28;20684;-68
2023/07/13 04:31:19;;;;;;;0.80;0.80;;;21.00;99.90;;;;;;5026066;28;20199;-68
2023/07/13 04:33:46;;;;;;;1.00;1.00;;;21.00;99.90;;;;;;5015496;28;20198;-68
2023/07/13 04:36:13;;;;;;;1.13;1.00;;;21.00;99.90;;;;;;5030118;28;20202;-68
2023/07/13 04:38:41;;;;;;;1.00;1.00;;;21.10;99.90;;;;;;5032920;28;20526;-68
2023/07/13 04:41:09;;;;;;;1.20;1.10;;;21.10;99.90;;;;;;5029050;28;20236;-68
2023/07/13 04:43:37;;;;;;;1.70;1.17;;;21.20;99.90;;;;;;5024094;28;20209;-68
2023/07/13 04:46:07;;;;;;;1.10;1.00;;;21.30;99.90;;;;;;5027514;28;20210;-67
2023/07/13 04:48:35;;;;;;;1.05;0.80;;;21.30;99.90;;;;;;5013643;28;20610;-67
2023/07/13 04:51:02;;;;;;;1.17;1.02;;;21.40;99.90;;;;;;5016895;28;20291;-66
2023/07/13 04:53:30;;;;;;;1.10;1.00;;;21.40;99.90;;;;;;5011292;28;20198;-66
2023/07/13 04:55:58;;;;;;;1.33;1.00;;;21.50;99.90;;;;;;5032549;28;20681;-66
2023/07/13 04:58:26;;;;;;;0.90;0.90;;;21.50;99.90;;;;;;5024675;28;20209;-68
2023/07/13 05:00:53;;;;;;;0.70;0.68;;;21.60;99.90;;;;;;5018401;28;20685;-67
2023/07/13 05:03:21;;;;;;;0.88;0.70;;;21.60;99.90;;;;;;5016171;28;20268;-67
2023/07/13 05:05:56;;;;;;;1.40;0.77;;;21.60;99.90;;;;;;5031164;28;20214;-68
2023/07/13 05:08:23;;;;;;;1.08;0.98;;;21.70;99.90;;;;;;5020594;28;20226;-68
2023/07/13 05:10:51;;;;;;;1.88;1.10;;;21.80;99.90;;;;;;5015264;28;20203;-67
2023/07/13 05:13:18;;;;;;;1.00;1.00;;;21.80;99.90;;;;;;4998495;28;20210;-68
2023/07/13 05:15:46;;;;;;;0.80;0.80;;;21.80;99.90;;;;;;5020115;28;20206;-68
2023/07/13 05:18:13;;;;;;;0.93;0.93;;;21.90;99.90;;;;;;5032532;28;20274;-67
2023/07/13 05:20:41;;;;;;;0.77;0.77;;;21.90;99.90;;;;;;5031487;28;20211;-67
2023/07/13 05:23:08;;;;;;;1.15;0.80;;;21.90;99.90;;;;;;5020479;28;20195;-67
2023/07/13 05:25:36;;;;;;;1.10;1.00;;;22.00;99.90;;;;;;5021450;28;20229;-67
2023/07/13 05:28:03;;;;;;;0.85;0.70;;;22.10;99.90;;;;;;5031523;28;20221;-68
2023/07/13 05:30:30;;;;;;;0.80;0.80;;;22.10;99.90;;;;;;5032315;28;20264;-67
2023/07/13 05:32:59;;;;;;;0.70;0.70;;;22.10;99.90;;;;;;5018962;28;20202;-67
2023/07/13 05:35:26;;;;;;;0.70;0.70;;;22.10;99.90;;;;;;5031180;28;20194;-67
2023/07/13 05:37:55;;;;;;;1.73;0.90;;;22.10;99.90;;;;;;5031036;28;20195;-68
2023/07/13 05:40:22;;;;;;;1.10;1.05;;;22.10;99.90;;;;;;5024210;28;20198;-67
2023/07/13 05:42:49;;;;;;;0.70;0.70;;;22.10;99.90;;;;;;5024997;28;20213;-67
2023/07/13 05:45:16;;;;;;;1.30;0.90;;;22.20;99.90;;;;;;5031756;28;20206;-68
2023/07/13 05:47:43;;;;;;;0.75;0.75;;;22.20;99.90;;;;;;5029038;28;20221;-67
2023/07/13 05:50:11;;;;;;;2.15;1.10;;;22.20;99.90;;;;;;5024375;28;20214;-67
2023/07/13 05:52:38;;;;;;;1.10;1.00;;;22.30;99.90;;;;;;5031038;28;20210;-68
2023/07/13 05:55:07;;;;;;;1.38;0.90;;;22.20;99.90;;;;;;5031884;28;20201;-68
2023/07/13 05:57:34;;;;;;;1.27;1.00;;;22.30;99.90;;;;;;5017442;28;20256;-67
2023/07/13 06:00:01;;;;;;;2.17;1.10;;;22.30;99.90;;;;;;5025398;28;20691;-68
2023/07/13 06:02:39;;;;;;;0.98;0.98;;;22.30;99.90;;;;;;5029870;28;20218;-68
2023/07/13 06:05:07;;;;;;;0.80;0.80;;;22.30;99.90;;;;;;5027356;28;20277;-67
2023/07/13 06:07:34;;;;;;;1.00;0.90;;;22.40;99.90;;;;;;5015707;28;20324;-68
2023/07/13 06:10:01;;;;;;;1.08;1.08;;;22.40;99.90;;;;;;5029538;28;20226;-68
2023/07/13 06:12:29;;;;;;;1.50;0.80;;;22.40;99.90;;;;;;5031070;28;20561;-68
2023/07/13 06:14:56;;;;;;;0.80;0.80;;;22.50;99.90;;;;;;5021514;28;20222;-67
2023/07/13 06:17:23;;;;;;;0.70;0.70;;;22.50;99.90;;;;;;5030124;28;21014;-67
2023/07/13 06:19:50;;;;;;;0.60;0.60;;;22.50;99.90;;;;;;5031109;28;20238;-67
2023/07/13 06:22:18;;;;;;;1.23;0.68;;;22.60;99.90;;;;;;5021538;28;20229;-68
2023/07/13 06:24:45;;;;;;;0.60;0.60;;;22.60;99.90;;;;;;5007009;28;20202;-68
2023/07/13 06:27:12;;;;;;;1.63;1.00;;;22.70;99.90;;;;;;5014284;28;20282;-69
2023/07/13 06:29:40;;;;;;;1.00;1.00;;;22.70;99.90;;;;;;5012970;28;20225;-68
2023/07/13 06:32:09;;;;;;;0.93;0.90;;;22.90;99.90;;;;;;5011396;28;20636;-68
2023/07/13 06:34:36;;;;;;;0.70;0.70;;;22.80;99.90;;;;;;5012757;28;20221;-67
2023/07/13 06:37:03;;;;;;;1.20;1.10;;;22.90;99.90;;;;;;5016856;28;20202;-68
2023/07/13 06:39:30;;;;;;;0.80;0.80;;;22.90;99.90;;;;;;5029291;28;20210;-68
2023/07/13 06:41:57;;;;;;;1.38;0.68;;;23.00;99.90;;;;;;5028086;28;20993;-68
2023/07/13 06:44:24;;;;;;;0.70;0.70;;;23.00;99.90;;;;;;4995776;28;20647;-67
2023/07/13 06:46:53;;;;;;;0.90;0.90;;;23.10;99.90;;;;;;5019820;28;20643;-68
2023/07/13 06:49:20;;;;;;;0.60;0.60;;;23.10;99.90;;;;;;5027946;28;20617;-68
2023/07/13 06:51:50;;;;;;;2.15;0.95;;;23.10;99.90;;;;;;5008811;28;20731;-68
2023/07/13 06:54:17;;;;;;;0.68;0.68;;;23.10;99.90;;;;;;5012814;28;20979;-68
2023/07/13 06:56:44;;;;;;;0.95;0.80;;;23.10;99.90;;;;;;5010726;28;20188;-68
2023/07/13 06:59:11;;;;;;;0.70;0.70;;;23.10;99.90;;;;;;5008456;28;20380;-67
2023/07/13 07:01:38;;;;;;;0.88;0.88;;;23.10;99.90;;;;;;5028097;28;20198;-67
2023/07/13 07:04:07;;;;;;;1.00;1.00;;;23.10;99.90;;;;;;5019762;28;20290;-68
2023/07/13 07:06:36;;;;;;;0.85;0.85;;;23.20;99.90;;;;;;5010963;28;20202;-68
2023/07/13 07:09:06;;;;;;;0.68;0.68;;;23.10;99.90;;;;;;4995814;28;20369;-67
2023/07/13 07:11:33;;;;;;;1.17;0.85;;;23.10;99.90;;;;;;5011162;28;20218;-67
2023/07/13 07:14:01;;;;;;;0.77;0.77;;;23.10;99.90;;;;;;5011410;28;20190;-68
2023/07/13 07:16:28;;;;;;;0.65;0.65;;;23.20;99.90;;;;;;5011891;28;20253;-68
2023/07/13 07:18:55;;;;;;;0.70;0.70;;;23.20;99.90;;;;;;5011742;28;20599;-68
2023/07/13 07:21:23;;;;;;;0.80;0.80;;;23.30;99.90;;;;;;5011601;28;20234;-68
2023/07/13 07:23:50;;;;;;;0.70;0.70;;;23.30;99.90;;;;;;4998996;28;20211;-68
2023/07/13 07:26:17;;;;;;;0.73;0.60;;;23.30;99.90;;;;;;5013361;28;20300;-68
2023/07/13 07:28:45;;;;;;;2.83;0.80;;;23.40;99.90;;;;;;5028791;28;20893;-68
2023/07/13 07:31:12;;;;;;;0.65;0.65;;;23.40;99.90;;;;;;5028378;28;20194;-68
2023/07/13 07:33:39;;;;;;;0.80;0.77;;;23.50;99.90;;;;;;5017068;28;20195;-68
2023/07/13 07:36:07;;;;;;;1.33;0.82;;;23.50;99.90;;;;;;5011132;28;20221;-67
2023/07/13 07:38:35;;;;;;;1.50;1.10;;;23.60;99.90;;;;;;5018107;28;20209;-67
2023/07/13 07:41:04;;;;;;;0.70;0.70;;;23.60;99.90;;;;;;5019794;28;20558;-68
2023/07/13 07:43:31;;;;;;;0.60;0.60;;;23.70;99.90;;;;;;5020506;28;20219;-68
2023/07/13 07:45:58;;;;;;;0.93;0.90;;;23.70;99.90;;;;;;5019121;28;20190;-69
2023/07/13 07:48:25;;;;;;;2.47;0.90;;;23.70;99.90;;;;;;5014022;28;20215;-67
2023/07/13 07:50:53;;;;;;;0.77;0.77;;;23.70;99.90;;;;;;5027256;28;20246;-69
2023/07/13 07:53:20;;;;;;;0.70;0.70;;;23.60;99.90;;;;;;5024781;28;20205;-69
2023/07/13 07:55:48;;;;;;;0.75;0.75;;;23.60;99.90;;;;;;5030027;28;20222;-69
2023/07/13 07:58:20;;;;;;;0.70;0.70;;;23.50;99.90;;;;;;5027837;28;20201;-68
2023/07/13 08:00:49;;;;;;;0.52;0.52;;;23.60;99.90;;;;;;5009472;28;20373;-68
2023/07/13 08:03:16;;;;;;;0.63;0.63;;;23.60;99.90;;;;;;5009028;28;20245;-67
2023/07/13 08:05:48;;;;;;;0.88;0.80;;;23.60;99.90;;;;;;5010133;28;20198;-68
2023/07/13 08:08:17;;;;;;;0.60;0.60;;;23.70;99.90;;;;;;5010267;28;20234;-68
2023/07/13 08:10:44;;;;;;;1.23;0.80;;;23.90;99.80;;;;;;5012023;28;20198;-69
2023/07/13 08:13:12;;;;;;;0.80;0.80;;;23.80;99.60;;;;;;4993038;28;20231;-67
2023/07/13 08:15:40;;;;;;;1.80;0.90;;;23.90;99.50;;;;;;4995104;28;20203;-68
2023/07/13 08:18:09;;;;;;;1.02;0.90;;;24.00;99.40;;;;;;4994383;28;20281;-67
2023/07/13 08:20:38;;;;;;;2.15;0.63;;;24.10;99.20;;;;;;4994405;28;20544;-68
2023/07/13 08:23:05;;;;;;;2.22;0.90;;;24.10;99.10;;;;;;5011825;28;20225;-68
2023/07/13 08:25:32;;;;;;;0.80;0.80;;;24.10;98.90;;;;;;4995565;28;20203;-68
2023/07/13 08:27:59;;;;;;;0.55;0.55;;;24.20;98.80;;;;;;5010442;28;20382;-69
2023/07/13 08:30:28;;;;;;;0.70;0.70;;;24.20;98.60;;;;;;5018200;28;20203;-69
2023/07/13 08:32:55;;;;;;;0.50;0.50;;;24.30;98.50;;;;;;5011277;28;20203;-68
2023/07/13 08:35:22;;;;;;;0.70;0.70;;;24.40;98.40;;;;;;5029955;28;20261;-68
2023/07/13 08:37:49;;;;;;;0.60;0.60;;;24.40;98.30;;;;;;5010886;28;20202;-68
2023/07/13 08:40:20;;;;;;;0.68;0.68;;;24.40;98.20;;;;;;5014377;28;20198;-68
2023/07/13 08:42:55;;;;;;;0.80;0.80;;;24.30;98.10;;;;;;5028504;28;20336;-68
2023/07/13 08:45:25;;;;;;;1.17;0.82;;;24.20;97.80;;;;;;5028309;28;20264;-68
2023/07/13 08:47:58;;;;;;;1.05;0.80;;;24.30;97.50;;;;;;4999240;28;20199;-68
2023/07/13 08:50:29;;;;;;;0.77;0.77;;;24.30;97.30;;;;;;5005672;28;20285;-68
2023/07/13 08:52:58;;;;;;;0.60;0.60;;;24.30;97.10;;;;;;5011037;28;20579;-68
2023/07/13 08:55:31;;;;;;;0.50;0.50;;;24.40;96.90;;;;;;5021149;28;20198;-69
2023/07/13 08:58:02;;;;;;;0.52;0.52;;;24.50;96.80;;;;;;5011363;28;20206;-68
2023/07/13 09:00:40;;;;;;;1.00;0.75;;;24.60;96.60;;;;;;5010317;28;20898;-68
2023/07/13 09:03:20;;;;;;;3.60;0.80;;;24.70;96.40;;;;;;5010536;28;20202;-68
2023/07/13 09:05:52;;;;;;;0.60;0.60;;;24.80;95.90;;;;;;5009642;28;20277;-67
2023/07/13 09:08:47;;;;;;;0.70;0.70;;;24.70;95.80;;;;;;5026724;28;20223;-67
2023/07/13 09:11:27;;;;;;;0.50;0.50;;;24.70;95.70;;;;;;5015708;28;20306;-68
2023/07/13 09:14:03;;;;;;;0.60;0.60;;;24.70;95.70;;;;;;5002093;28;20207;-68
2023/07/13 09:16:30;;;;;;;0.85;0.85;;;24.90;95.70;;;;;;5023281;28;20194;-68
2023/07/13 09:19:04;;;;;;;0.63;0.63;;;24.90;95.50;;;;;;5011328;28;20260;-67
2023/07/13 09:21:36;;;;;;;0.70;0.70;;;25.00;95.60;;;;;;5031010;28;20272;-67
2023/07/13 09:24:29;;;;;;;0.60;0.60;;;25.00;95.50;;;;;;5015386;28;20217;-69
2023/07/13 09:26:57;;;;;;;0.70;0.70;;;25.00;95.40;;;;;;5014944;28;20198;-69
2023/07/13 09:29:34;;;;;;;2.08;0.60;;;25.00;95.00;;;;;;5015552;28;20204;-68
2023/07/13 09:32:08;;;;;;;0.68;0.50;;;25.10;94.90;;;;;;5011109;28;20217;-67
2023/07/13 09:34:37;;;;;;;2.08;0.60;;;25.10;94.50;;;;;;5031977;28;20272;-69
2023/07/13 09:37:05;;;;;;;0.70;0.70;;;25.30;94.40;;;;;;5007156;28;20253;-70
2023/07/13 09:39:40;;;;;;;0.90;0.90;;;25.30;94.00;;;;;;4998569;28;20658;-70
2023/07/13 09:42:16;;;;;;;0.50;0.50;;;25.40;93.80;;;;;;4994974;28;20217;-69
2023/07/13 09:44:54;;;;;;;0.65;0.65;;;25.50;93.90;;;;;;5013832;28;20617;-69
2023/07/13 09:47:23;;;;;;;0.60;0.60;;;25.50;93.40;;;;;;5012365;28;21237;-69
2023/07/13 09:49:58;;;;;;;0.50;0.50;;;25.60;93.60;;;;;;5014538;28;20206;-70
2023/07/13 09:52:27;;;;;;;0.70;0.70;;;25.50;93.20;;;;;;5013212;28;20206;-69
2023/07/13 09:54:58;;;;;;;0.68;0.68;;;25.60;93.00;;;;;;5013098;28;20551;-69
2023/07/13 09:57:28;;;;;;;2.15;1.30;;;25.60;92.90;;;;;;5012558;28;20308;-70
2023/07/13 09:59:58;;;;;;;1.35;1.00;;;25.60;92.70;;;;;;4996827;28;20200;-70
2023/07/13 10:02:33;;;;;;;0.90;0.90;;;25.70;92.50;;;;;;5011432;28;20199;-69
2023/07/13 10:05:04;;;;;;;0.70;0.70;;;25.80;92.30;;;;;;5012920;28;20663;-69
2023/07/13 10:07:32;;;;;;;0.68;0.60;;;25.80;91.90;;;;;;5011651;28;20575;-70
2023/07/13 10:10:02;;;;;;;0.70;0.70;;;25.90;91.70;;;;;;4997653;28;20304;-70
2023/07/13 10:12:31;;;;;;;0.90;0.85;;;25.90;91.70;;;;;;5012721;28;20396;-70
2023/07/13 10:15:01;;;;;;;0.80;0.80;;;25.90;91.30;;;;;;5011231;28;20586;-70
2023/07/13 10:17:33;;;;;;;0.70;0.70;;;25.80;91.00;;;;;;5010916;28;20202;-69
2023/07/13 10:20:04;;;;;;;0.80;0.80;;;25.90;90.90;;;;;;4994930;28;20273;-69
2023/07/13 10:22:40;;;;;;;0.60;0.60;;;26.00;90.90;;;;;;5011361;28;20198;-69
2023/07/13 10:25:18;;;;;;;0.43;0.43;;;26.10;90.80;;;;;;5013363;28;21133;-69
2023/07/13 10:27:47;;;;;;;2.15;1.15;;;26.30;90.70;;;;;;5009861;28;20333;-69
2023/07/13 10:30:20;;;;;;;1.73;1.10;;;26.40;90.10;;;;;;5012022;28;20219;-69
2023/07/13 10:32:48;;;;;;;0.90;0.90;;;26.40;90.50;;;;;;5012159;28;20195;-70
2023/07/13 10:35:20;;;;;;;2.30;1.25;;;26.40;90.90;;;;;;5010268;28;20199;-70
2023/07/13 10:37:53;;;;;;;1.40;1.30;;;26.30;91.60;;;;;;5012533;28;20198;-70
2023/07/13 10:40:26;;;;;;;1.38;1.00;;;26.20;92.30;;;;;;5010739;28;20599;-70
2023/07/13 10:42:55;;;;;;;1.83;1.00;;;26.00;92.90;;;;;;4997030;28;20195;-70
2023/07/13 10:45:24;;;;;;;1.52;1.20;;;25.80;93.50;;;;;;5010974;28;20578;-68
2023/07/13 10:47:55;;;;;;;1.20;1.10;;;25.60;94.00;;;;;;4995240;28;20326;-68
2023/07/13 10:50:26;;;;;;;0.68;0.68;;;25.40;94.30;;;;;;5012219;28;20297;-67
2023/07/13 10:52:56;;;;;;;1.00;1.00;;;25.20;94.70;;;;;;5012745;28;20274;-68
2023/07/13 10:55:37;;;;;;;0.90;0.90;;;25.10;95.10;;;;;;5011524;28;20200;-68
2023/07/13 10:58:13;;;;;;;0.80;0.80;;;25.00;95.50;;;;;;4997300;28;20353;-68
2023/07/13 11:00:58;;;;;;;0.95;0.95;;;24.90;95.90;;;;;;5012833;28;20281;-68
2023/07/13 11:03:29;;;;;;;0.52;0.52;;;24.80;96.30;;;;;;5009888;28;20277;-67
2023/07/13 11:06:10;;;;;;;0.80;0.80;;;24.80;96.60;;;;;;5012037;28;20202;-68
2023/07/13 11:08:39;;;;;;;0.85;0.85;;;24.90;96.70;;;;;;5012960;28;20253;-68
2023/07/13 11:11:36;;;;;;;0.75;0.75;;;25.10;96.70;;;;;;4994590;28;20195;-67
2023/07/13 11:14:05;;;;;;;1.67;1.23;;;25.10;96.80;;;;;;4994001;28;20198;-68
2023/07/13 11:16:45;;;;;;;1.00;1.00;;;25.20;96.80;;;;;;5028457;28;20250;-67
2023/07/13 11:19:40;;;;;;;0.90;0.90;;;25.40;96.80;;;;;;5028461;28;20187;-68
2023/07/13 11:22:26;;;;;;;1.70;0.90;;;25.50;96.90;;;;;;5013812;28;20187;-68
2023/07/13 11:25:01;;;;;;;0.85;0.85;;;25.60;97.30;;;;;;5012748;28;20634;-68
2023/07/13 11:27:41;;;;;;;0.80;0.80;;;25.70;97.00;;;;;;5010431;28;20811;-69
2023/07/13 11:30:36;;;;;;;0.70;0.70;;;25.80;97.20;;;;;;5011546;28;20222;-69
2023/07/13 11:33:18;;;;;;;1.33;1.00;;;25.90;96.80;;;;;;5010460;28;20237;-68
2023/07/13 11:35:52;;;;;;;0.70;0.70;;;26.00;96.70;;;;;;5010861;28;20194;-67
2023/07/13 11:38:24;;;;;;;1.48;0.60;;;26.10;96.50;;;;;;5011366;28;20432;-68
2023/07/13 11:40:56;;;;;;;1.45;1.10;;;26.10;96.30;;;;;;4994774;28;20237;-68
2023/07/13 11:43:25;;;;;;;0.90;0.90;;;26.00;96.20;;;;;;4994233;28;20202;-68
2023/07/13 11:45:52;;;;;;;0.70;0.70;;;26.00;96.10;;;;;;5009505;28;20198;-67
2023/07/13 11:48:22;;;;;;;1.05;0.80;;;26.00;96.20;;;;;;5010684;28;20607;-68
2023/07/13 11:50:56;;;;;;;1.13;0.88;;;25.90;96.20;;;;;;5011349;28;20298;-70
2023/07/13 11:53:29;;;;;;;0.77;0.77;;;25.90;96.20;;;;;;5011769;28;20187;-68
2023/07/13 11:55:57;;;;;;;0.80;0.80;;;25.90;96.20;;;;;;5010607;28;20195;-68
2023/07/13 11:58:28;;;;;;;1.23;1.02;;;25.90;96.30;;;;;;5011307;28;20202;-69
2023/07/13 12:01:00;;;;;;;0.70;0.70;;;25.90;96.20;;;;;;4994793;28;20201;-69
2023/07/13 12:03:29;;;;;;;0.98;0.80;;;25.80;96.20;;;;;;5010120;28;20191;-69
2023/07/13 12:06:05;;;;;;;1.45;0.98;;;25.80;96.10;;;;;;5010167;28;20218;-68
2023/07/13 12:08:40;;;;;;;0.80;0.80;;;25.80;96.00;;;;;;5010134;28;20242;-69
2023/07/13 12:11:16;;;;;;;0.88;0.88;;;25.80;96.00;;;;;;5011397;28;20673;-68
2023/07/13 12:13:46;;;;;;;0.55;0.55;;;25.90;96.00;;;;;;5008237;28;20210;-68
2023/07/13 12:16:16;;;;;;;1.17;0.70;;;26.00;96.00;;;;;;5011295;28;20202;-67
2023/07/13 12:18:48;;;;;;;1.33;0.88;;;25.90;95.90;;;;;;5009859;28;20269;-68
2023/07/13 12:21:19;;;;;;;0.63;0.63;;;26.00;95.80;;;;;;5010946;28;20187;-69
2023/07/13 12:23:50;;;;;;;0.60;0.60;;;26.10;95.80;;;;;;4994436;28;20334;-68
2023/07/13 12:26:19;;;;;;;1.27;0.82;;;26.10;95.70;;;;;;5011474;28;20199;-69
2023/07/13 12:28:48;;;;;;;0.90;0.90;;;26.20;95.60;;;;;;5009085;28;20761;-68
2023/07/13 12:31:34;;;;;;;0.80;0.80;;;26.20;95.40;;;;;;5011530;28;21240;-68
2023/07/13 12:34:07;;;;;;;1.52;1.05;;;26.30;95.30;;;;;;5010519;28;20274;-68
2023/07/13 12:36:36;;;;;;;2.65;1.00;;;26.30;95.10;;;;;;5010490;28;20186;-68
2023/07/13 12:39:15;;;;;;;1.30;1.00;;;26.30;94.90;;;;;;5010828;28;20199;-68
2023/07/13 12:41:43;;;;;;;1.33;1.25;;;26.30;94.80;;;;;;5011242;28;20199;-69
2023/07/13 12:44:16;;;;;;;1.08;0.98;;;26.30;94.50;;;;;;4996385;28;20298;-69
2023/07/13 12:46:57;;;;;;;1.02;1.00;;;26.30;94.50;;;;;;5012263;28;20252;-68
2023/07/13 12:49:28;;;;;;;1.08;1.00;;;26.40;94.50;;;;;;5013132;28;20202;-69
2023/07/13 12:52:01;;;;;;;4.88;0.98;;;26.40;94.40;;;;;;5000819;28;20867;-69
2023/07/13 12:54:31;;;;;;;0.65;0.65;;;26.40;94.40;;;;;;5014175;28;20281;-68
2023/07/13 12:57:02;;;;;;;1.17;0.90;;;26.40;94.40;;;;;;4997439;28;20613;-69
2023/07/13 12:59:36;;;;;;;0.70;0.70;;;26.30;94.30;;;;;;5013510;28;20260;-69
2023/07/13 13:02:18;;;;;;;0.60;0.60;;;26.30;94.30;;;;;;5012900;28;20908;-69